Latest Weather Observations for Port Hedland

IDW60801

Issued at 10:53 pm WST Monday 29 November 2021 (issued every 10 minutes, with the page automatically refreshed every 10 minutes)

About weather observations | Map of weather stations | Latest weather observations for WA | Other Formats
Station Details ID: 004032 Name: PORT HEDLAND AIRPORT Lat: -20.37 Lon: 118.63 Height: 6.4 m
Data from the previous 72 hours. | See also: Recent months at Port Hedland
Date/Time
WST
Temp
°C
App
Temp
°C
Dew
Point
°C
Rel
Hum
%
Delta-T
°C
Wind Press
QNH
hPa
Press
MSL
hPa
Rain since
9am
mm
Dir  Spd
km/h
Gust
km/h
Spd
kts
Gust
kts
29/10:30pm 25.9 28.3 22.2 80 2.5 W 13 19 7 10 1009.5 1009.4 0.0
29/10:00pm 26.2 28.0 22.5 80 2.5 WSW 17 20 9 11 1009.5 1009.4 0.0
29/09:30pm 27.6 29.9 22.8 75 3.3 W 15 20 8 11 1009.4 1009.3 0.0
29/09:00pm 27.5 29.7 23.3 78 2.9 WNW 17 20 9 11 1009.0 1008.9 0.0
29/08:30pm 27.9 30.0 23.7 78 2.9 W 19 22 10 12 1008.8 1008.7 0.0
29/08:00pm 28.2 30.3 23.8 77 3.0 WNW 19 24 10 13 1008.5 1008.4 0.0
29/07:30pm 28.6 30.1 23.7 75 3.4 WNW 22 30 12 16 1008.0 1007.9 0.0
29/07:00pm 29.1 30.9 23.5 72 3.9 WNW 20 26 11 14 1007.7 1007.6 0.0
29/06:30pm 29.7 29.6 22.2 64 5.1 WNW 26 30 14 16 1007.1 1007.0 0.0
29/06:00pm 30.7 30.0 21.8 59 6.0 WNW 28 33 15 18 1006.6 1006.5 0.0
29/05:30pm 32.2 31.0 20.8 51 7.6 WNW 28 35 15 19 1006.3 1006.2 0.0
29/05:00pm 33.1 31.8 20.6 47 8.4 NW 28 37 15 20 1006.2 1006.1 0.0
29/04:30pm 33.7 32.1 20.1 44 9.0 NW 28 35 15 19 1006.0 1005.9 0.0
29/04:00pm 34.0 30.9 18.9 41 9.9 NW 33 39 18 21 1005.9 1005.8 0.0
29/03:30pm 35.3 32.0 17.0 33 11.7 NW 30 35 16 19 1005.9 1005.8 0.0
29/03:00pm 36.2 33.2 16.9 32 12.4 NW 28 35 15 19 1006.0 1005.9 0.0
29/02:30pm 37.9 35.5 17.3 29 13.4 NW 26 32 14 17 1006.3 1006.2 0.0
29/02:00pm 37.7 35.0 16.6 28 13.6 NW 26 32 14 17 1006.6 1006.5 0.0
29/01:30pm 38.0 35.6 16.3 27 13.9 NW 24 28 13 15 1007.1 1007.0 0.0
29/01:00pm 37.5 36.8 19.4 34 12.1 NW 22 32 12 17 1007.5 1007.4 0.0
29/12:30pm 35.9 35.2 20.2 40 10.5 NW 24 32 13 17 1007.9 1007.8 0.0
29/12:00pm 36.9 35.9 18.0 33 12.4 NNW 20 28 11 15 1008.4 1008.3 0.0
29/11:30am 36.4 36.2 19.4 37 11.3 NNW 19 28 10 15 1008.8 1008.7 0.0
29/11:00am 36.6 35.4 15.1 27 13.5 NNW 15 20 8 11 1009.1 1009.0 0.0
29/10:30am 36.3 35.8 15.9 29 12.9 W 13 17 7 9 1009.5 1009.4 0.0
29/10:00am 34.7 34.6 17.0 35 11.3 NW 13 19 7 10 1009.8 1009.7 0.0
29/09:30am 33.7 34.5 17.4 37 10.5 NNW 9 15 5 8 1010.3 1010.2 0.0
29/09:00am 32.8 33.8 18.6 43 9.2 NNW 11 17 6 9 1010.3 1010.2 0.0
29/08:30am 31.8 32.4 18.7 45 8.5 NNW 13 19 7 10 1010.4 1010.3 0.0
29/08:00am 31.3 31.4 18.3 46 8.4 NNW 15 19 8 10 1010.2 1010.1 0.0
29/07:30am 29.4 31.4 21.6 63 5.2 NNE 13 15 7 8 1010.2 1010.1 0.0
29/07:00am 27.9 29.8 21.4 67 4.3 NNE 13 17 7 9 1010.3 1010.2 0.0
29/06:30am 26.6 29.1 21.1 72 3.6 NE 9 11 5 6 1010.3 1010.2 0.0
29/06:00am 24.0 26.6 20.1 79 2.5 ENE 6 9 3 5 1010.3 1010.2 0.0
29/05:30am 23.6 25.9 19.9 80 2.4 SE 7 11 4 6 1009.9 1009.8 0.0
29/05:00am 23.0 24.4 19.6 81 2.2 SSE 11 15 6 8 1009.7 1009.6 0.0
29/04:30am 23.8 26.0 20.3 81 2.3 SSE 9 15 5 8 1009.5 1009.4 0.0
29/04:00am 23.9 26.5 20.4 81 2.3 SSW 7 11 4 6 1008.8 1008.7 0.0
29/03:30am 24.2 26.2 20.7 81 2.3 S 11 17 6 9 1008.4 1008.3 0.0
29/03:00am 23.4 27.1 20.0 81 2.2 CALM 0 0 0 0 1008.1 1008.0 0.0
29/02:30am 23.2 26.9 20.0 82 2.1 CALM 0 0 0 0 1007.9 1007.8 0.0
29/02:00am 23.5 26.9 19.4 78 2.6 CALM 0 0 0 0 1007.8 1007.7 0.0
29/01:30am 24.6 27.7 21.1 81 2.3 SSW 6 9 3 5 1008.0 1007.9 0.0
29/01:00am 25.0 28.9 21.1 79 2.6 S 2 7 1 4 1008.2 1008.1 0.0
29/12:30am 25.4 28.6 21.7 80 2.5 S 7 9 4 5 1008.5 1008.4 0.0
29/12:00am 25.4 29.9 21.5 79 2.6 CALM 0 0 0 0 1008.9 1008.8 0.0
 
Date/Time
WST
Temp
°C
App
Temp
°C
Dew
Point
°C
Rel
Hum
%
Delta-T
°C
Wind Press
QNH
hPa
Press
MSL
hPa
Rain since
9am
mm
Dir  Spd
km/h
Gust
km/h
Spd
kts
Gust
kts
28/11:30pm 25.8 30.6 22.1 80 2.5 CALM 0 0 0 0 1009.1 1009.0 0.0
28/11:00pm 26.2 30.8 22.5 80 2.5 SSW 2 7 1 4 1009.3 1009.2 0.0
28/10:30pm 26.0 29.7 22.5 81 2.4 SW 7 9 4 5 1009.2 1009.1 0.0
28/10:00pm 26.1 29.9 22.8 82 2.2 W 7 9 4 5 1009.3 1009.2 0.0
28/09:30pm 26.2 29.3 22.1 78 2.7 NW 9 11 5 6 1009.0 1008.9 0.0
28/09:00pm 26.9 31.1 23.2 80 2.5 NNW 6 7 3 4 1008.9 1008.8 0.0
28/08:30pm 27.2 30.7 22.8 77 3.0 NNW 9 13 5 7 1008.6 1008.5 0.0
28/08:00pm 27.7 30.1 22.2 72 3.7 NNW 13 15 7 8 1008.3 1008.2 0.0
28/07:30pm 28.0 30.6 22.0 70 4.0 NNW 11 15 6 8 1008.1 1008.0 0.0
28/07:00pm 28.3 31.2 21.8 68 4.4 NNW 9 13 5 7 1007.5 1007.4 0.0
28/06:30pm 29.1 30.8 21.6 64 5.0 NNW 15 19 8 10 1007.0 1006.9 0.0
28/06:00pm 29.9 31.0 22.3 63 5.2 NNW 20 28 11 15 1006.7 1006.6 0.0
28/05:30pm 30.6 30.7 21.9 59 5.9 N 24 32 13 17 1006.4 1006.3 0.0
28/05:00pm 32.2 31.9 21.1 52 7.5 N 24 33 13 18 1006.2 1006.1 0.0
28/04:30pm 32.7 30.7 19.2 44 8.9 N 28 37 15 20 1006.1 1006.0 0.0
28/04:00pm 32.9 29.9 18.7 43 9.3 N 32 41 17 22 1006.1 1006.0 0.0
28/03:30pm 34.0 30.2 17.2 36 10.8 N 33 41 18 22 1006.1 1006.0 0.0
28/03:00pm 33.5 30.1 19.9 44 9.0 N 37 46 20 25 1006.4 1006.3 0.0
28/02:30pm 33.5 31.4 22.3 52 7.7 N 37 46 20 25 1006.6 1006.5 0.0
28/02:00pm 33.2 30.0 21.7 51 7.8 NNE 41 50 22 27 1006.7 1006.6 0.0
28/01:30pm 34.5 30.3 20.5 44 9.4 NNE 43 54 23 29 1006.9 1006.8 0.0
28/01:00pm 34.2 28.6 17.8 37 10.6 NNE 44 56 24 30 1007.2 1007.1 0.0
28/12:30pm 35.6 29.2 15.9 31 12.4 NNE 44 54 24 29 1007.4 1007.3 0.0
28/12:00pm 35.7 31.0 16.9 32 12.1 NNE 37 46 20 25 1007.7 1007.6 0.0
28/11:30am 35.1 31.0 18.2 36 11.0 NNE 37 44 20 24 1008.1 1008.0 0.0
28/11:17am 36.3 33.5 17.4 32 12.2 ENE 28 37 15 20 1008.2 1008.1 0.0
28/11:06am 41.9 34.5 4.0 10 20.7 E 32 50 17 27 1008.2 1008.1 0.0
28/11:00am 41.7 33.3 3.9 10 20.6 E 37 52 20 28 1008.3 1008.2 0.0
28/10:42am 41.1 32.6 3.4 10 20.3 E 37 56 20 30 1008.3 1008.2 0.0
28/10:30am 40.7 31.8 3.1 10 20.1 E 39 50 21 27 1008.6 1008.5 0.0
28/10:00am 39.8 30.3 3.8 11 19.4 E 43 61 23 33 1008.8 1008.7 0.0
28/09:47am 39.5 29.9 3.6 11 19.2 E 43 61 23 33 1008.9 1008.8 0.0
28/09:30am 38.9 29.1 3.1 11 19.0 E 44 57 24 31 1009.0 1008.9 0.0
28/09:00am 37.7 27.5 3.4 12 18.2 E 46 61 25 33 1009.2 1009.1 0.0
28/08:34am 36.9 26.8 4.0 13 17.5 ESE 46 65 25 35 1009.2 1009.1 0.0
28/08:30am 36.9 26.8 4.0 13 17.5 ESE 46 61 25 33 1009.3 1009.2 0.0
28/08:00am 35.7 26.2 4.1 14 16.8 ESE 43 59 23 32 1009.2 1009.1 0.0
28/07:30am 34.3 24.8 4.0 15 15.9 ESE 43 67 23 36 1009.0 1008.9 0.0
28/07:25am 34.0 24.5 3.7 15 15.8 ESE 43 67 23 36 1009.0 1008.9 0.0
28/07:00am 33.1 24.4 3.9 16 15.2 ESE 39 50 21 27 1009.2 1009.1 0.0
28/06:45am 32.6 24.9 3.5 16 15.0 ESE 33 54 18 29 1009.2 1009.1 0.0
28/06:30am 30.9 26.1 4.6 19 13.7 ESE 19 30 10 16 1009.2 1009.1 0.0
28/06:00am 28.1 25.0 5.6 24 11.7 SE 11 15 6 8 1009.0 1008.9 0.0
28/05:30am 28.4 24.7 4.6 22 12.2 ESE 13 17 7 9 1008.9 1008.8 0.0
28/05:00am 28.4 24.2 5.9 24 11.8 ESE 17 20 9 11 1008.7 1008.6 0.0
28/04:30am 26.8 23.1 7.8 30 10.2 SE 17 20 9 11 1008.4 1008.3 0.0
28/04:00am 25.5 22.4 8.9 35 9.0 SSE 15 17 8 9 1008.0 1007.9 0.0
28/03:30am 26.2 23.9 9.1 34 9.3 S 11 15 6 8 1007.7 1007.6 0.0
28/03:00am 26.2 24.0 9.5 35 9.2 S 11 13 6 7 1007.6 1007.5 0.0
28/02:30am 27.3 24.4 9.6 33 9.8 S 15 19 8 10 1007.5 1007.4 0.0
28/02:00am 27.6 25.3 10.3 34 9.7 S 13 17 7 9 1007.4 1007.3 0.0
28/01:30am 28.1 25.8 10.3 33 10.0 S 13 17 7 9 1007.5 1007.4 0.0
28/01:00am 27.6 25.4 10.8 35 9.5 S 13 19 7 10 1007.7 1007.6 0.0
28/12:30am 27.3 25.5 10.9 36 9.3 S 11 15 6 8 1007.8 1007.7 0.0
28/12:00am 27.9 25.9 11.5 36 9.4 SSW 13 17 7 9 1008.0 1007.9 0.0
 
Date/Time
WST
Temp
°C
App
Temp
°C
Dew
Point
°C
Rel
Hum
%
Delta-T
°C
Wind Press
QNH
hPa
Press
MSL
hPa
Rain since
9am
mm
Dir  Spd
km/h
Gust
km/h
Spd
kts
Gust
kts
27/11:30pm 28.3 25.6 11.8 36 9.5 SSW 17 20 9 11 1008.3 1008.2 0.0
27/11:00pm 28.8 27.0 12.2 35 9.7 SSW 13 17 7 9 1008.5 1008.4 0.0
27/10:30pm 28.9 27.3 12.8 37 9.5 SSW 13 15 7 8 1008.4 1008.3 0.0
27/10:00pm 28.2 27.4 15.1 44 8.0 SSW 13 15 7 8 1008.4 1008.3 0.0
27/09:30pm 28.1 27.7 16.1 48 7.4 SW 13 17 7 9 1008.3 1008.2 0.0
27/09:00pm 29.1 29.1 15.2 42 8.5 SW 9 11 5 6 1008.0 1007.9 0.0
27/08:30pm 29.5 30.2 15.6 43 8.6 SW 6 7 3 4 1007.9 1007.8 0.0
27/08:00pm 29.6 30.2 15.7 43 8.6 WSW 7 9 4 5 1007.5 1007.4 0.0
27/07:30pm 30.0 30.2 15.7 42 8.8 WNW 9 9 5 5 1007.2 1007.1 0.0
27/07:00pm 30.8 31.4 15.2 38 9.6 NW 6 9 3 5 1007.1 1007.0 0.0
27/06:30pm 32.3 31.8 14.9 35 10.7 NNW 11 13 6 7 1006.7 1006.6 0.0
27/06:00pm 33.8 32.2 13.8 30 12.2 NNW 15 20 8 11 1006.5 1006.4 0.0
27/05:30pm 35.0 32.8 14.3 29 12.8 N 19 24 10 13 1006.2 1006.1 0.0
27/05:25pm 35.1 32.5 13.9 28 13.0 N 20 26 11 14 1006.1 1006.0 0.0
27/05:07pm 35.5 32.5 13.6 26 13.4 N 22 28 12 15 1006.0 1005.9 0.0
27/05:00pm 36.0 32.5 12.3 24 14.3 N 22 28 12 15 1006.0 1005.9 0.0
27/04:30pm 36.7 33.0 11.5 22 15.0 N 22 28 12 15 1005.9 1005.8 0.0
27/04:00pm 36.7 31.3 10.8 21 15.3 N 30 35 16 19 1005.8 1005.7 0.0
27/03:30pm 37.5 32.3 11.5 21 15.5 NNE 30 35 16 19 1005.9 1005.8 0.0
27/03:00pm 38.0 32.8 10.4 19 16.3 N 28 33 15 18 1006.2 1006.1 0.0
27/02:30pm 37.6 32.2 12.3 22 15.3 NNE 32 41 17 22 1006.4 1006.3 0.0
27/02:00pm 38.6 33.4 11.6 20 16.3 NNE 30 35 16 19 1006.6 1006.5 0.0
27/01:30pm 38.3 34.7 10.6 19 16.4 NNE 20 28 11 15 1007.0 1006.9 0.0
27/01:00pm 40.0 35.1 5.2 12 19.2 ENE 20 28 11 15 1007.3 1007.2 0.0
27/12:30pm 40.0 34.7 5.2 12 19.2 ESE 22 35 12 19 1007.6 1007.5 0.0
27/12:00pm 39.5 33.0 4.8 12 19.0 ESE 28 44 15 24 1008.2 1008.1 0.0
27/11:49am 38.9 32.0 4.4 12 18.7 ENE 30 48 16 26 1008.4 1008.3 0.0
27/11:30am 39.0 32.4 4.4 12 18.7 E 28 39 15 21 1008.6 1008.5 0.0
27/11:00am 39.2 32.0 5.7 13 18.5 E 33 54 18 29 1009.0 1008.9 0.0
27/10:36am 38.5 31.6 6.3 14 17.9 ESE 32 50 17 27 1009.3 1009.2 0.0
27/10:30am 38.6 31.1 6.3 14 18.0 E 35 46 19 25 1009.5 1009.4 0.0
27/10:12am 38.4 31.3 6.2 14 17.9 E 33 52 18 28 1009.7 1009.6 0.0
27/10:00am 37.7 29.9 6.6 15 17.3 E 37 54 20 29 1009.8 1009.7 0.0
27/09:58am 38.1 30.8 7.0 15 17.4 E 35 54 19 29 1009.8 1009.7 0.0
27/09:30am 37.5 28.9 6.5 15 17.2 E 41 52 22 28 1010.0 1009.9 0.0
27/09:00am 36.3 28.3 7.4 17 16.2 ESE 39 50 21 27 1010.1 1010.0 0.0
27/08:30am 35.0 27.7 7.1 18 15.4 ESE 35 48 19 26 1010.1 1010.0 0.0
27/08:05am 33.9 26.6 7.0 19 14.8 ESE 35 54 19 29 1010.0 1009.9 0.0
27/08:00am 33.9 26.6 7.0 19 14.8 ESE 35 48 19 26 1010.1 1010.0 0.0
27/07:30am 32.5 25.8 7.4 21 13.8 ESE 32 43 17 23 1010.1 1010.0 0.0
27/07:14am 32.1 26.1 7.0 21 13.7 SE 28 46 15 25 1010.1 1010.0 0.0
27/07:00am 31.4 26.5 7.1 22 13.2 SE 22 41 12 22 1010.0 1009.9 0.0
27/06:30am 26.4 24.0 11.3 39 8.6 SSE 15 19 8 10 1010.0 1009.9 0.0
27/06:00am 23.2 22.2 13.4 54 5.7 S 11 13 6 7 1009.9 1009.8 0.0
27/05:30am 22.6 21.7 13.7 57 5.2 S 11 15 6 8 1009.6 1009.5 0.0
27/05:00am 23.1 21.8 13.8 55 5.4 S 13 17 7 9 1009.1 1009.0 0.0
27/04:30am 22.6 21.6 14.7 61 4.7 SSW 13 17 7 9 1008.9 1008.8 0.0
27/04:00am 22.3 21.2 15.4 65 4.1 SSW 15 17 8 9 1008.7 1008.6 0.0
27/03:30am 22.8 22.3 15.9 65 4.2 SSW 13 17 7 9 1008.6 1008.5 0.0
27/03:00am 23.0 22.3 16.5 67 4.0 SSW 15 19 8 10 1008.7 1008.6 0.0
27/02:30am 23.1 22.7 17.1 69 3.7 SSW 15 19 8 10 1008.8 1008.7 0.0
27/02:00am 23.8 23.9 17.5 68 3.9 SSW 13 17 7 9 1008.9 1008.8 0.0
27/01:30am 24.1 24.4 17.8 68 3.9 SSW 13 17 7 9 1009.0 1008.9 0.0
27/01:00am 24.1 23.7 18.1 69 3.8 SSW 17 22 9 12 1009.1 1009.0 0.0
27/12:30am 24.3 24.3 18.0 68 4.0 SSW 15 17 8 9 1009.5 1009.4 0.0
27/12:00am 24.5 24.5 18.2 68 4.0 SW 15 17 8 9 1009.7 1009.6 0.0
 
Date/Time
WST
Temp
°C
App
Temp
°C
Dew
Point
°C
Rel
Hum
%
Delta-T
°C
Wind Press
QNH
hPa
Press
MSL
hPa
Rain since
9am
mm
Dir  Spd
km/h
Gust
km/h
Spd
kts
Gust
kts
26/11:30pm 25.1 25.1 18.1 65 4.4 SW 15 19 8 10 1009.9 1009.8 0.0
26/11:00pm 25.5 24.7 17.9 63 4.8 SW 19 22 10 12 1010.0 1009.9 0.0

Other formats

Comma delimited format used in spreadsheet applications
http://www.bom.gov.au/fwo/IDW60801/IDW60801.94312.axf

JavaScript Object Notation format (JSON) in row-major order
http://www.bom.gov.au/fwo/IDW60801/IDW60801.94312.json

Data quality

Most of these data are generated automatically and are frequently updated. Quality checks on data are not normally performed. It is possible for incorrect values to appear. Refer to information at About Latest Weather Observations and please check the disclaimer before using these data.